createdAt,value
2017-04-25T00:00:20.862Z,47.60
2017-04-25T00:01:19.111Z,47.60
2017-04-25T00:02:17.340Z,47.90
2017-04-25T00:03:15.607Z,47.80
2017-04-25T00:04:13.841Z,47.90
2017-04-25T00:05:12.100Z,47.90
2017-04-25T00:06:10.472Z,47.90
2017-04-25T00:07:08.796Z,47.80
2017-04-25T00:08:07.099Z,47.80
2017-04-25T00:09:05.422Z,47.80
2017-04-25T00:10:03.680Z,47.80
2017-04-25T00:11:01.957Z,47.70
2017-04-25T00:12:00.215Z,47.90
2017-04-25T00:12:58.489Z,48.10
2017-04-25T00:13:56.821Z,48.30
2017-04-25T00:14:55.096Z,48.30
2017-04-25T00:15:53.337Z,48.30
2017-04-25T00:16:51.653Z,48.30
2017-04-25T00:17:49.963Z,48.30
2017-04-25T00:18:48.170Z,48.40
2017-04-25T00:19:46.472Z,48.60
2017-04-25T00:20:44.750Z,48.70
2017-04-25T00:21:43.021Z,48.70
2017-04-25T00:22:41.331Z,48.80
2017-04-25T00:23:39.709Z,48.90
2017-04-25T00:24:38.027Z,48.90
2017-04-25T00:25:36.296Z,49.90
2017-04-25T00:26:34.611Z,49.50
2017-04-25T00:27:33.364Z,49.60
2017-04-25T00:28:31.693Z,50.20
2017-04-25T00:29:29.985Z,49.60
2017-04-25T00:30:30.312Z,49.60
2017-04-25T00:31:28.610Z,49.60
2017-04-25T00:32:26.944Z,49.60
2017-04-25T00:33:25.339Z,49.50
2017-04-25T00:34:23.622Z,49.20
2017-04-25T00:35:21.872Z,49.60
2017-04-25T00:36:20.121Z,49.80
2017-04-25T00:37:18.385Z,49.80
2017-04-25T00:38:16.680Z,49.80
2017-04-25T00:39:14.910Z,49.70
2017-04-25T00:40:13.165Z,49.70
2017-04-25T00:41:11.481Z,49.60
2017-04-25T00:42:09.760Z,49.50
2017-04-25T00:43:08.042Z,49.50
2017-04-25T00:44:06.342Z,49.50
2017-04-25T00:45:04.602Z,49.60
2017-04-25T00:46:02.921Z,50.00
2017-04-25T00:47:01.325Z,50.00
2017-04-25T00:47:59.590Z,50.00
2017-04-25T00:48:57.850Z,49.80
2017-04-25T00:49:56.109Z,50.00
2017-04-25T00:50:54.391Z,50.30
2017-04-25T00:51:52.695Z,50.40
2017-04-25T00:52:51.006Z,50.40
2017-04-25T00:53:49.307Z,50.30
2017-04-25T00:54:47.734Z,50.20
2017-04-25T00:55:46.009Z,51.00
2017-04-25T00:56:44.373Z,50.50
2017-04-25T00:57:42.597Z,50.30
2017-04-25T00:58:40.964Z,50.50
2017-04-25T00:59:39.261Z,50.60
2017-04-25T01:00:37.503Z,50.60
2017-04-25T01:01:35.930Z,50.50
2017-04-25T01:02:34.290Z,50.40
2017-04-25T01:03:32.911Z,50.30
2017-04-25T01:04:31.296Z,50.30
2017-04-25T01:05:29.609Z,50.10
2017-04-25T01:06:27.883Z,50.20
2017-04-25T01:07:26.372Z,50.10
2017-04-25T01:08:25.331Z,50.10
2017-04-25T01:09:23.639Z,50.30
2017-04-25T01:10:22.053Z,50.20
2017-04-25T01:11:20.370Z,50.20
2017-04-25T01:12:18.677Z,50.20
2017-04-25T01:13:16.953Z,50.10
2017-04-25T01:14:15.334Z,50.00
2017-04-25T01:15:13.692Z,50.10
2017-04-25T01:16:11.943Z,50.20
2017-04-25T01:17:10.234Z,50.00
2017-04-25T01:18:08.468Z,50.30
2017-04-25T01:19:06.763Z,50.40
2017-04-25T01:20:05.061Z,50.30
2017-04-25T01:21:03.328Z,50.40
2017-04-25T01:22:01.695Z,50.70
2017-04-25T01:23:00.006Z,51.30
2017-04-25T01:23:58.312Z,50.90
2017-04-25T01:24:56.627Z,50.90
2017-04-25T01:25:54.954Z,50.90
2017-04-25T01:26:53.224Z,51.00
2017-04-25T01:27:51.531Z,51.10
2017-04-25T01:28:49.860Z,51.20
2017-04-25T01:29:48.226Z,51.20
2017-04-25T01:30:46.462Z,51.40
2017-04-25T01:31:44.771Z,51.70
2017-04-25T01:32:43.031Z,51.30
2017-04-25T01:33:41.411Z,51.30
2017-04-25T01:34:39.650Z,51.40
2017-04-25T01:35:37.919Z,51.40
2017-04-25T01:36:36.261Z,51.40
2017-04-25T01:37:34.621Z,51.80
2017-04-25T01:38:33.017Z,51.90
2017-04-25T01:39:31.354Z,52.00
2017-04-25T01:40:29.663Z,52.10
2017-04-25T01:41:27.923Z,52.30
2017-04-25T01:42:26.228Z,53.00
2017-04-25T01:43:24.519Z,52.10
2017-04-25T01:44:22.786Z,52.20
2017-04-25T01:45:21.073Z,52.00
2017-04-25T01:46:19.302Z,51.80
2017-04-25T01:47:17.622Z,51.90
2017-04-25T01:48:15.870Z,51.70
2017-04-25T01:49:14.124Z,51.60
2017-04-25T01:50:12.494Z,51.80
2017-04-25T01:51:10.844Z,51.90
2017-04-25T01:52:09.132Z,51.80
2017-04-25T01:53:07.507Z,52.00
2017-04-25T01:54:05.863Z,52.10
2017-04-25T01:55:04.138Z,52.70
2017-04-25T01:56:02.433Z,51.90
2017-04-25T01:57:00.763Z,52.10
2017-04-25T01:57:58.991Z,53.00
2017-04-25T01:58:57.279Z,53.10
2017-04-25T01:59:55.576Z,53.20
2017-04-25T02:00:53.831Z,53.20
2017-04-25T02:01:52.138Z,53.30
2017-04-25T02:02:50.429Z,53.30
2017-04-25T02:03:48.695Z,53.30
2017-04-25T02:04:46.937Z,53.10
2017-04-25T02:05:45.207Z,53.30
2017-04-25T02:06:43.518Z,53.20
2017-04-25T02:07:41.895Z,53.30
2017-04-25T02:08:40.208Z,53.40
2017-04-25T02:09:38.468Z,53.20
2017-04-25T02:10:36.735Z,53.20
2017-04-25T02:11:34.995Z,53.30
2017-04-25T02:12:33.839Z,53.40
2017-04-25T02:13:32.104Z,53.10
2017-04-25T02:14:30.639Z,53.50
2017-04-25T02:15:28.967Z,53.70
2017-04-25T02:16:27.231Z,53.90
2017-04-25T02:17:25.422Z,53.80
2017-04-25T02:18:23.659Z,53.90
2017-04-25T02:19:21.943Z,54.10
2017-04-25T02:20:20.191Z,54.20
2017-04-25T02:21:18.410Z,54.20
2017-04-25T02:22:16.698Z,54.30
2017-04-25T02:23:14.983Z,54.00
2017-04-25T02:24:13.231Z,54.30
2017-04-25T02:25:11.484Z,54.10
2017-04-25T02:26:09.934Z,54.20
2017-04-25T02:27:08.218Z,54.20
2017-04-25T02:28:06.602Z,54.20
2017-04-25T02:29:04.795Z,54.10
2017-04-25T02:30:03.027Z,53.80
2017-04-25T02:31:01.277Z,53.80
2017-04-25T02:31:59.572Z,53.80
2017-04-25T02:32:57.769Z,53.80
2017-04-25T02:33:56.001Z,53.80
2017-04-25T02:34:54.291Z,54.00
2017-04-25T02:35:52.579Z,54.10
2017-04-25T02:36:50.843Z,54.50
2017-04-25T02:37:49.071Z,54.70
2017-04-25T02:38:47.341Z,54.60
2017-04-25T02:39:45.639Z,54.60
2017-04-25T02:40:43.928Z,54.60
2017-04-25T02:41:42.169Z,54.50
2017-04-25T02:42:40.515Z,54.30
2017-04-25T02:43:38.770Z,54.30
2017-04-25T02:44:36.998Z,54.40
2017-04-25T02:45:35.245Z,54.30
2017-04-25T02:46:33.475Z,54.30
2017-04-25T02:47:31.824Z,54.20
2017-04-25T02:48:30.096Z,54.20
2017-04-25T02:49:28.304Z,54.30
2017-04-25T02:50:26.564Z,54.00
2017-04-25T02:51:24.915Z,54.00
2017-04-25T02:52:23.128Z,53.90
2017-04-25T02:53:21.434Z,53.90
2017-04-25T02:54:19.689Z,53.90
2017-04-25T02:55:17.971Z,53.90
2017-04-25T02:56:16.266Z,54.50
2017-04-25T02:57:14.608Z,54.70
2017-04-25T02:58:12.827Z,54.70
2017-04-25T02:59:11.191Z,54.60
2017-04-25T03:00:09.458Z,54.60
2017-04-25T03:01:07.707Z,54.50
2017-04-25T03:02:05.999Z,54.50
2017-04-25T03:03:04.342Z,54.60
2017-04-25T03:04:02.588Z,54.70
2017-04-25T03:05:00.862Z,54.40
2017-04-25T03:05:59.154Z,54.40
2017-04-25T03:06:57.379Z,54.40
2017-04-25T03:07:55.667Z,54.40
2017-04-25T03:08:53.922Z,54.00
2017-04-25T03:09:52.166Z,54.10
2017-04-25T03:10:50.430Z,54.00
2017-04-25T03:11:48.690Z,54.00
2017-04-25T03:12:46.910Z,54.00
2017-04-25T03:13:45.121Z,54.00
2017-04-25T03:14:43.380Z,54.00
2017-04-25T03:15:41.687Z,53.90
2017-04-25T03:16:39.941Z,53.90
2017-04-25T03:17:38.163Z,53.90
2017-04-25T03:18:36.377Z,54.00
2017-04-25T03:19:34.549Z,54.00
2017-04-25T03:20:32.788Z,54.10
2017-04-25T03:21:31.036Z,54.10
2017-04-25T03:22:29.367Z,54.10
2017-04-25T03:23:27.586Z,54.10
2017-04-25T03:24:25.861Z,54.10
2017-04-25T03:25:24.179Z,54.10
2017-04-25T03:26:22.379Z,54.00
2017-04-25T03:27:20.694Z,54.00
2017-04-25T03:28:18.907Z,54.10
2017-04-25T03:29:17.152Z,54.10
2017-04-25T03:30:15.703Z,54.10
2017-04-25T03:31:14.154Z,53.50
2017-04-25T03:32:16.556Z,53.50
2017-04-25T03:33:15.461Z,53.80
2017-04-25T03:34:14.399Z,53.80
2017-04-25T03:35:13.512Z,53.70
2017-04-25T03:36:18.546Z,54.10
2017-04-25T03:37:19.725Z,54.00
2017-04-25T03:38:17.968Z,54.70
2017-04-25T03:39:17.070Z,54.00
2017-04-25T03:40:15.584Z,54.00
2017-04-25T03:41:13.990Z,54.00
2017-04-25T03:42:13.382Z,54.00
2017-04-25T03:43:11.733Z,54.00
2017-04-25T03:44:11.982Z,53.90
2017-04-25T03:45:11.557Z,53.90
2017-04-25T03:46:10.039Z,53.90
2017-04-25T03:47:08.332Z,53.90
2017-04-25T03:48:06.608Z,53.90
2017-04-25T03:49:04.842Z,53.80
2017-04-25T03:50:03.187Z,53.90
2017-04-25T03:51:01.559Z,54.20
2017-04-25T03:51:59.778Z,53.80
2017-04-25T03:52:58.026Z,53.80
2017-04-25T03:53:56.309Z,53.80
2017-04-25T03:54:54.552Z,53.80
2017-04-25T03:55:52.850Z,53.80
2017-04-25T03:56:51.137Z,53.80
2017-04-25T03:57:49.423Z,54.40
2017-04-25T03:58:47.807Z,53.70
2017-04-25T03:59:46.121Z,54.00
2017-04-25T04:00:44.456Z,54.30
2017-04-25T04:01:42.667Z,54.50
2017-04-25T04:02:40.976Z,54.60
2017-04-25T04:03:39.257Z,54.50
2017-04-25T04:04:37.533Z,54.50
2017-04-25T04:05:36.724Z,54.50
2017-04-25T04:06:35.012Z,54.70
2017-04-25T04:07:33.296Z,54.70
2017-04-25T04:08:31.563Z,54.80
2017-04-25T04:09:29.804Z,55.10
2017-04-25T04:10:28.180Z,55.10
2017-04-25T04:11:26.461Z,55.30
2017-04-25T04:12:24.711Z,55.40
2017-04-25T04:13:22.900Z,55.40
2017-04-25T04:14:21.194Z,55.40
2017-04-25T04:15:19.479Z,55.40
2017-04-25T04:16:17.745Z,55.30
2017-04-25T04:17:16.059Z,55.30
2017-04-25T04:18:14.331Z,55.20
2017-04-25T04:19:12.604Z,55.10
2017-04-25T04:20:10.929Z,55.00
2017-04-25T04:21:09.176Z,55.00
2017-04-25T04:22:07.425Z,54.70
2017-04-25T04:23:05.727Z,54.70
2017-04-25T04:24:03.936Z,54.40
2017-04-25T04:25:02.132Z,54.70
2017-04-25T04:26:00.384Z,54.70
2017-04-25T04:26:58.620Z,54.80
2017-04-25T04:27:56.827Z,55.00
2017-04-25T04:28:55.111Z,55.00
2017-04-25T04:29:53.336Z,55.00
2017-04-25T04:30:51.648Z,55.10
2017-04-25T04:31:50.054Z,55.10
2017-04-25T04:32:48.401Z,55.10
2017-04-25T04:33:46.719Z,55.10
2017-04-25T04:34:45.035Z,55.00
2017-04-25T04:35:43.407Z,55.00
2017-04-25T04:36:41.698Z,55.10
2017-04-25T04:37:40.031Z,55.00
2017-04-25T04:38:38.238Z,54.80
2017-04-25T04:39:36.465Z,54.80
2017-04-25T04:40:34.706Z,54.90
2017-04-25T04:41:32.923Z,54.90
2017-04-25T04:42:31.316Z,55.00
2017-04-25T04:43:29.681Z,54.90
2017-04-25T04:44:27.941Z,54.90
2017-04-25T04:45:26.227Z,54.90
2017-04-25T04:46:24.455Z,55.00
2017-04-25T04:47:22.710Z,55.00
2017-04-25T04:48:21.011Z,54.80
2017-04-25T04:49:19.308Z,54.90
2017-04-25T04:50:17.520Z,54.80
2017-04-25T04:51:15.746Z,55.00
2017-04-25T04:52:13.980Z,55.20
2017-04-25T04:53:12.190Z,55.30
2017-04-25T04:54:10.486Z,55.30
2017-04-25T04:55:08.790Z,55.30
2017-04-25T04:56:06.986Z,55.30
2017-04-25T04:57:05.172Z,55.00
2017-04-25T04:58:03.470Z,55.20
2017-04-25T04:59:01.702Z,55.00
2017-04-25T04:59:59.983Z,55.20
2017-04-25T05:00:58.224Z,55.10
2017-04-25T05:01:56.475Z,55.10
2017-04-25T05:02:54.762Z,55.30
2017-04-25T05:03:53.043Z,55.50
2017-04-25T05:04:51.294Z,55.40
2017-04-25T05:05:49.587Z,55.30
2017-04-25T05:06:47.810Z,55.30
2017-04-25T05:07:46.149Z,55.50
2017-04-25T05:08:44.415Z,55.40
2017-04-25T05:09:42.649Z,55.30
2017-04-25T05:10:40.962Z,55.40
2017-04-25T05:11:39.234Z,55.30
2017-04-25T05:12:37.444Z,55.40
2017-04-25T05:13:38.280Z,55.40
2017-04-25T05:14:36.687Z,55.40
2017-04-25T05:15:35.058Z,55.30
2017-04-25T05:16:33.303Z,55.40
2017-04-25T05:17:31.579Z,55.40
2017-04-25T05:18:29.827Z,55.40
2017-04-25T05:19:28.294Z,55.30
2017-04-25T05:20:26.629Z,55.20
2017-04-25T05:21:24.896Z,55.10
2017-04-25T05:22:23.206Z,54.90
2017-04-25T05:23:21.641Z,53.70
2017-04-25T05:24:19.997Z,53.90
2017-04-25T05:25:18.255Z,53.90
2017-04-25T05:26:16.606Z,53.70
2017-04-25T05:27:15.093Z,53.40
2017-04-25T05:28:13.429Z,53.40
2017-04-25T05:29:11.651Z,53.50
2017-04-25T05:30:09.901Z,53.40
2017-04-25T05:31:08.157Z,53.50
2017-04-25T05:32:06.413Z,53.70
2017-04-25T05:33:04.664Z,54.00
2017-04-25T05:34:02.872Z,53.90
2017-04-25T05:35:01.110Z,53.90
2017-04-25T05:35:59.519Z,54.00
2017-04-25T05:36:57.848Z,54.10
2017-04-25T05:37:56.077Z,54.20
2017-04-25T05:38:54.578Z,54.20
2017-04-25T05:39:52.868Z,55.40
2017-04-25T05:40:51.109Z,55.60
2017-04-25T05:41:49.415Z,55.60
2017-04-25T05:42:47.694Z,54.50
2017-04-25T05:43:45.999Z,54.10
2017-04-25T05:44:44.237Z,53.80
2017-04-25T05:45:42.494Z,53.50
2017-04-25T05:46:42.523Z,53.60
2017-04-25T05:47:40.730Z,53.60
2017-04-25T05:48:39.923Z,53.50
2017-04-25T05:49:38.250Z,53.50
2017-04-25T05:50:36.604Z,53.70
2017-04-25T05:51:34.914Z,53.80
2017-04-25T05:52:33.541Z,53.80
2017-04-25T05:53:31.800Z,54.90
2017-04-25T05:54:30.002Z,55.10
2017-04-25T05:55:28.299Z,55.70
2017-04-25T05:56:26.525Z,56.20
2017-04-25T05:57:25.023Z,56.40
2017-04-25T05:58:23.255Z,56.70
2017-04-25T05:59:21.455Z,56.90
2017-04-25T06:00:19.731Z,57.00
2017-04-25T06:01:19.609Z,57.00
2017-04-25T06:02:17.931Z,57.20
2017-04-25T06:03:16.106Z,57.20
2017-04-25T06:04:14.317Z,57.20
2017-04-25T06:05:12.645Z,57.20
2017-04-25T06:06:10.960Z,57.30
2017-04-25T06:07:09.268Z,57.30
2017-04-25T06:08:07.531Z,57.30
2017-04-25T06:09:05.775Z,57.00
2017-04-25T06:10:04.151Z,57.10
2017-04-25T06:11:02.467Z,57.20
2017-04-25T06:12:00.687Z,57.10
2017-04-25T06:12:58.940Z,57.10
2017-04-25T06:13:57.139Z,57.10
2017-04-25T06:14:55.385Z,57.30
2017-04-25T06:15:53.927Z,57.10
2017-04-25T06:16:52.212Z,57.10
2017-04-25T06:17:50.452Z,57.20
2017-04-25T06:18:48.721Z,56.90
2017-04-25T06:19:46.921Z,56.80
2017-04-25T06:20:45.191Z,58.30
2017-04-25T06:21:43.414Z,57.40
2017-04-25T06:22:41.657Z,57.30
2017-04-25T06:23:39.852Z,56.90
2017-04-25T06:24:38.101Z,57.00
2017-04-25T06:25:36.387Z,57.10
2017-04-25T06:26:34.640Z,57.40
2017-04-25T06:27:32.890Z,57.50
2017-04-25T06:28:31.107Z,57.60
2017-04-25T06:29:29.372Z,57.80
2017-04-25T06:30:27.580Z,57.90
2017-04-25T06:31:25.794Z,57.90
2017-04-25T06:32:24.043Z,57.90
2017-04-25T06:33:22.310Z,57.80
2017-04-25T06:34:20.643Z,57.80
2017-04-25T06:35:18.863Z,57.70
2017-04-25T06:36:17.129Z,57.70
2017-04-25T06:37:15.446Z,57.70
2017-04-25T06:38:13.691Z,57.00
2017-04-25T06:39:11.886Z,56.80
2017-04-25T06:40:10.100Z,56.90
2017-04-25T06:41:08.338Z,56.70
2017-04-25T06:42:06.554Z,56.30
2017-04-25T06:43:04.835Z,55.90
2017-04-25T06:44:03.149Z,57.40
2017-04-25T06:45:01.413Z,60.80
2017-04-25T06:45:59.663Z,61.20
2017-04-25T06:46:57.922Z,57.80
2017-04-25T06:47:56.176Z,56.10
2017-04-25T06:48:54.427Z,57.30
2017-04-25T06:49:52.692Z,55.50
2017-04-25T06:50:50.932Z,54.80
2017-04-25T06:51:49.141Z,53.60
2017-04-25T06:52:47.377Z,54.50
2017-04-25T06:53:45.678Z,53.70
2017-04-25T06:54:43.932Z,53.70
2017-04-25T06:55:42.219Z,53.60
2017-04-25T06:56:40.466Z,53.40
2017-04-25T06:57:38.646Z,52.30
2017-04-25T06:58:36.871Z,51.30
2017-04-25T06:59:35.101Z,51.20
2017-04-25T07:00:33.462Z,51.10
2017-04-25T07:01:31.772Z,50.80
2017-04-25T07:02:39.384Z,51.60
2017-04-25T07:03:37.703Z,52.10
2017-04-25T07:04:35.960Z,52.50
2017-04-25T07:05:34.216Z,52.90
2017-04-25T07:06:32.503Z,53.10
2017-04-25T07:07:30.753Z,53.50
2017-04-25T07:08:28.954Z,53.80
2017-04-25T07:09:27.223Z,53.80
2017-04-25T07:10:25.461Z,53.70
2017-04-25T07:11:23.731Z,54.20
2017-04-25T07:12:22.000Z,54.40
2017-04-25T07:13:20.182Z,54.80
2017-04-25T07:14:18.432Z,54.70
2017-04-25T07:15:16.664Z,54.80
2017-04-25T07:16:14.938Z,55.00
2017-04-25T07:17:13.203Z,55.90
2017-04-25T07:18:11.451Z,55.60
2017-04-25T07:19:09.682Z,56.40
2017-04-25T07:20:07.888Z,55.60
2017-04-25T07:21:06.151Z,55.80
2017-04-25T07:22:04.470Z,55.80
2017-04-25T07:23:02.723Z,56.00
2017-04-25T07:24:01.108Z,56.10
2017-04-25T07:24:59.757Z,56.40
2017-04-25T07:25:57.981Z,56.90
2017-04-25T07:26:58.224Z,58.00
2017-04-25T07:27:56.468Z,58.00
2017-04-25T07:28:58.372Z,58.00
2017-04-25T07:29:56.748Z,58.00
2017-04-25T07:30:55.422Z,58.00
2017-04-25T07:31:53.697Z,57.10
2017-04-25T07:32:52.049Z,57.00
2017-04-25T07:33:50.334Z,57.20
2017-04-25T07:34:48.562Z,57.30
2017-04-25T07:35:46.791Z,57.30
2017-04-25T07:36:46.811Z,57.10
2017-04-25T07:37:45.022Z,57.20
2017-04-25T07:38:43.846Z,57.30
2017-04-25T07:39:42.142Z,57.30
2017-04-25T07:40:40.451Z,57.30
2017-04-25T07:41:38.735Z,57.30
2017-04-25T07:42:37.030Z,57.40
2017-04-25T07:43:35.300Z,57.30
2017-04-25T07:44:33.576Z,57.20
2017-04-25T07:45:31.803Z,57.40
2017-04-25T07:46:30.039Z,57.20
2017-04-25T07:47:29.278Z,57.10
2017-04-25T07:48:27.512Z,57.10
2017-04-25T07:49:25.841Z,56.90
2017-04-25T07:50:24.519Z,55.70
2017-04-25T07:51:23.053Z,55.60
2017-04-25T07:52:21.396Z,55.70
2017-04-25T07:53:19.662Z,55.60
2017-04-25T07:54:18.075Z,55.40
2017-04-25T07:55:16.325Z,55.00
2017-04-25T07:56:14.729Z,55.00
2017-04-25T07:57:13.149Z,54.90
2017-04-25T07:58:11.496Z,54.80
2017-04-25T07:59:09.850Z,54.80
2017-04-25T08:00:08.132Z,54.80
2017-04-25T08:01:06.402Z,54.50
2017-04-25T08:02:04.638Z,55.40
2017-04-25T08:03:03.765Z,55.60
2017-04-25T08:04:02.366Z,55.80
2017-04-25T08:05:00.776Z,56.00
2017-04-25T08:05:59.029Z,55.70
2017-04-25T08:06:57.402Z,56.20
2017-04-25T08:07:55.650Z,56.10
2017-04-25T08:08:53.935Z,56.50
2017-04-25T08:09:52.215Z,56.40
2017-04-25T08:10:50.464Z,56.20
2017-04-25T08:11:48.718Z,56.00
2017-04-25T08:12:46.971Z,56.10
2017-04-25T08:13:45.244Z,56.10
2017-04-25T08:14:43.534Z,56.00
2017-04-25T08:15:41.811Z,56.00
2017-04-25T08:16:40.003Z,56.00
2017-04-25T08:17:38.223Z,56.20
2017-04-25T08:18:36.459Z,55.60
2017-04-25T08:19:34.782Z,55.40
2017-04-25T08:20:33.103Z,55.20
2017-04-25T08:21:31.347Z,55.50
2017-04-25T08:22:29.612Z,55.60
2017-04-25T08:23:27.919Z,55.40
2017-04-25T08:24:26.203Z,54.80
2017-04-25T08:25:24.413Z,54.70
2017-04-25T08:26:23.014Z,54.80
2017-04-25T08:27:21.276Z,54.80
2017-04-25T08:28:19.540Z,55.20
2017-04-25T08:29:17.758Z,55.20
2017-04-25T08:30:16.047Z,54.80
2017-04-25T08:31:14.344Z,54.90
2017-04-25T08:32:12.654Z,54.80
2017-04-25T08:33:10.903Z,54.80
2017-04-25T08:34:09.115Z,55.10
2017-04-25T08:35:07.370Z,54.60
2017-04-25T08:36:05.602Z,54.60
2017-04-25T08:37:03.834Z,54.80
2017-04-25T08:38:02.103Z,55.10
2017-04-25T08:39:00.378Z,54.90
2017-04-25T08:39:58.649Z,54.50
2017-04-25T08:40:56.937Z,54.60
2017-04-25T08:41:55.150Z,54.40
2017-04-25T08:42:53.372Z,54.20
2017-04-25T08:43:51.647Z,54.10
2017-04-25T08:44:49.912Z,54.00
2017-04-25T08:45:48.109Z,54.20
2017-04-25T08:46:46.335Z,54.10
2017-04-25T08:47:44.597Z,53.20
2017-04-25T08:48:42.895Z,53.60
2017-04-25T08:49:41.221Z,52.50
2017-04-25T08:50:39.463Z,52.50
2017-04-25T08:51:37.662Z,52.50
2017-04-25T08:52:35.915Z,52.50
2017-04-25T08:53:34.126Z,52.80
2017-04-25T08:54:32.410Z,52.70
2017-04-25T08:55:30.672Z,52.50
2017-04-25T08:56:28.855Z,52.20
2017-04-25T08:57:27.405Z,52.00
2017-04-25T08:58:25.650Z,52.10
2017-04-25T08:59:23.954Z,52.00
2017-04-25T09:00:22.247Z,51.80
2017-04-25T09:01:20.502Z,51.50
2017-04-25T09:02:18.775Z,51.80
2017-04-25T09:03:17.031Z,51.80
2017-04-25T09:04:15.307Z,51.50
2017-04-25T09:05:13.560Z,51.30
2017-04-25T09:06:11.811Z,51.30
2017-04-25T09:07:11.075Z,51.20
2017-04-25T09:08:09.311Z,50.90
2017-04-25T09:09:07.634Z,51.20
2017-04-25T09:10:05.890Z,51.10
2017-04-25T09:11:04.150Z,51.00
2017-04-25T09:12:02.336Z,51.10
2017-04-25T09:13:00.636Z,50.80
2017-04-25T09:13:58.861Z,49.60
2017-04-25T09:14:57.085Z,49.60
2017-04-25T09:15:55.379Z,49.00
2017-04-25T09:16:53.603Z,49.60
2017-04-25T09:17:51.816Z,49.60
2017-04-25T09:18:50.140Z,48.90
2017-04-25T09:19:48.412Z,48.40
2017-04-25T09:20:46.667Z,48.60
2017-04-25T09:21:45.011Z,47.60
2017-04-25T09:22:43.251Z,48.00
2017-04-25T09:23:41.505Z,47.20
2017-04-25T09:24:39.776Z,47.30
2017-04-25T09:25:38.014Z,47.30
2017-04-25T09:26:36.258Z,47.40
2017-04-25T09:27:34.506Z,47.10
2017-04-25T09:28:32.784Z,47.00
2017-04-25T09:29:31.164Z,46.50
2017-04-25T09:30:29.475Z,47.20
2017-04-25T09:31:27.770Z,46.40
2017-04-25T09:32:26.043Z,46.40
2017-04-25T09:33:24.340Z,46.00
2017-04-25T09:34:22.595Z,45.60
2017-04-25T09:35:20.857Z,45.50
2017-04-25T09:36:19.108Z,46.20
2017-04-25T09:37:17.359Z,45.20
2017-04-25T09:38:15.574Z,45.40
2017-04-25T09:39:13.780Z,44.70
2017-04-25T09:40:12.034Z,44.30
2017-04-25T09:41:10.319Z,44.10
2017-04-25T09:42:08.570Z,43.30
2017-04-25T09:43:06.872Z,42.90
2017-04-25T09:44:05.076Z,43.90
2017-04-25T09:45:03.346Z,43.40
2017-04-25T09:46:01.713Z,42.90
2017-04-25T09:46:59.978Z,42.90
2017-04-25T09:47:58.272Z,42.90
2017-04-25T09:48:56.662Z,42.90
2017-04-25T09:49:54.958Z,42.90
2017-04-25T09:50:53.215Z,42.90
2017-04-25T09:51:51.634Z,42.40
2017-04-25T09:52:49.896Z,42.00
2017-04-25T09:53:48.189Z,42.00
2017-04-25T09:54:46.454Z,43.00
2017-04-25T09:55:44.674Z,43.00
2017-04-25T09:56:42.881Z,41.50
2017-04-25T09:57:41.150Z,41.10
2017-04-25T09:58:39.445Z,41.00
2017-04-25T09:59:37.687Z,40.80
2017-04-25T10:00:35.962Z,41.00
2017-04-25T10:01:34.142Z,41.80
2017-04-25T10:02:32.399Z,41.00
2017-04-25T10:03:30.708Z,41.10
2017-04-25T10:04:28.936Z,40.50
2017-04-25T10:05:27.211Z,40.20
2017-04-25T10:06:25.430Z,41.10
2017-04-25T10:07:23.733Z,41.50
2017-04-25T10:08:21.981Z,41.70
2017-04-25T10:09:20.211Z,41.50
2017-04-25T10:10:18.483Z,41.20
2017-04-25T10:11:16.825Z,41.20
2017-04-25T10:12:15.098Z,41.80
2017-04-25T10:13:13.406Z,41.70
2017-04-25T10:14:11.650Z,40.70
2017-04-25T10:15:09.891Z,40.80
2017-04-25T10:16:08.139Z,40.60
2017-04-25T10:17:06.430Z,41.00
2017-04-25T10:18:04.703Z,41.40
2017-04-25T10:19:02.920Z,41.50
2017-04-25T10:20:01.194Z,41.10
2017-04-25T10:20:59.566Z,40.90
2017-04-25T10:21:57.838Z,39.10
2017-04-25T10:22:56.143Z,39.10
2017-04-25T10:23:54.369Z,38.60
2017-04-25T10:24:52.586Z,38.90
2017-04-25T10:25:50.837Z,39.60
2017-04-25T10:26:49.135Z,39.80
2017-04-25T10:27:47.380Z,40.30
2017-04-25T10:28:45.647Z,41.00
2017-04-25T10:29:43.829Z,40.60
2017-04-25T10:30:42.050Z,41.40
2017-04-25T10:31:40.292Z,40.40
2017-04-25T10:32:38.488Z,40.90
2017-04-25T10:33:36.723Z,41.00
2017-04-25T10:34:35.008Z,41.40
2017-04-25T10:35:33.278Z,41.30
2017-04-25T10:36:31.518Z,41.30
2017-04-25T10:37:29.818Z,41.40
2017-04-25T10:38:28.098Z,41.40
2017-04-25T10:39:26.335Z,41.10
2017-04-25T10:40:24.574Z,41.50
2017-04-25T10:41:22.870Z,41.10
2017-04-25T10:42:21.121Z,41.10
2017-04-25T10:43:19.353Z,41.10
2017-04-25T10:44:17.595Z,40.60
2017-04-25T10:45:15.829Z,40.40
2017-04-25T10:46:14.112Z,41.30
2017-04-25T10:47:12.514Z,40.30
2017-04-25T10:48:10.779Z,40.20
2017-04-25T10:49:08.996Z,40.40
2017-04-25T10:50:07.206Z,39.80
2017-04-25T10:51:05.488Z,39.20
2017-04-25T10:52:03.735Z,39.40
2017-04-25T10:53:01.960Z,39.30
2017-04-25T10:54:00.231Z,38.70
2017-04-25T10:54:58.470Z,38.30
2017-04-25T10:55:56.648Z,38.80
2017-04-25T10:56:54.937Z,39.30
2017-04-25T10:57:53.165Z,37.80
2017-04-25T10:58:51.498Z,38.30
2017-04-25T10:59:49.717Z,37.60
2017-04-25T11:00:48.001Z,37.30
2017-04-25T11:01:46.225Z,37.30
2017-04-25T11:02:44.431Z,38.00
2017-04-25T11:03:42.655Z,38.70
2017-04-25T11:04:40.915Z,38.80
2017-04-25T11:05:39.182Z,39.50
2017-04-25T11:06:37.498Z,39.70
2017-04-25T11:07:35.799Z,39.20
2017-04-25T11:08:33.997Z,38.30
2017-04-25T11:09:32.465Z,38.20
2017-04-25T11:10:30.812Z,38.00
2017-04-25T11:11:29.071Z,38.10
2017-04-25T11:12:27.309Z,37.50
2017-04-25T11:13:25.599Z,37.30
2017-04-25T11:14:23.859Z,37.60
2017-04-25T11:15:22.104Z,38.30
2017-04-25T11:16:20.392Z,37.50
2017-04-25T11:17:18.621Z,38.50
2017-04-25T11:18:16.835Z,38.30
2017-04-25T11:19:15.157Z,38.20
2017-04-25T11:20:13.422Z,37.10
2017-04-25T11:21:11.849Z,36.90
2017-04-25T11:22:10.170Z,36.80
2017-04-25T11:23:08.484Z,36.90
2017-04-25T11:24:06.767Z,37.70
2017-04-25T11:25:04.944Z,37.20
2017-04-25T11:26:03.178Z,37.40
2017-04-25T11:27:01.477Z,38.10
2017-04-25T11:27:59.740Z,37.40
2017-04-25T11:28:58.010Z,36.50
2017-04-25T11:29:56.274Z,36.30
2017-04-25T11:30:55.221Z,35.20
2017-04-25T11:31:53.495Z,34.20
2017-04-25T11:32:51.760Z,34.60
2017-04-25T11:33:50.062Z,35.40
2017-04-25T11:34:48.382Z,35.40
2017-04-25T11:35:46.654Z,35.80
2017-04-25T11:36:44.856Z,35.10
2017-04-25T11:37:43.149Z,37.40
2017-04-25T11:38:46.177Z,36.40
2017-04-25T11:39:44.490Z,36.30
2017-04-25T11:40:42.757Z,36.30
2017-04-25T11:41:40.993Z,36.20
2017-04-25T11:42:39.214Z,36.30
2017-04-25T11:43:37.429Z,36.70
2017-04-25T11:44:35.879Z,37.00
2017-04-25T11:45:34.230Z,36.30
2017-04-25T11:46:32.572Z,36.70
2017-04-25T11:47:30.861Z,36.40
2017-04-25T11:48:29.100Z,36.70
2017-04-25T11:49:27.446Z,36.60
2017-04-25T11:50:25.906Z,36.60
2017-04-25T11:51:24.206Z,36.70
2017-04-25T11:52:22.432Z,35.90
2017-04-25T11:53:20.753Z,36.60
2017-04-25T11:54:19.003Z,35.00
2017-04-25T11:55:22.942Z,34.90
2017-04-25T11:56:21.266Z,34.70
2017-04-25T11:57:19.537Z,34.40
2017-04-25T11:58:17.837Z,34.40
2017-04-25T11:59:17.020Z,35.10
2017-04-25T12:00:15.381Z,34.40
2017-04-25T12:01:13.743Z,34.90
2017-04-25T12:02:12.047Z,35.10
2017-04-25T12:03:10.443Z,34.70
2017-04-25T12:04:08.799Z,35.70
2017-04-25T12:05:07.155Z,34.50
2017-04-25T12:06:05.541Z,33.10
2017-04-25T12:07:03.935Z,33.00
2017-04-25T12:08:02.302Z,32.80
2017-04-25T12:09:00.673Z,33.90
2017-04-25T12:09:58.915Z,34.00
2017-04-25T12:10:57.304Z,34.40
2017-04-25T12:11:55.563Z,33.60
2017-04-25T12:12:53.872Z,32.70
2017-04-25T12:13:52.247Z,33.50
2017-04-25T12:14:50.574Z,33.10
2017-04-25T12:15:48.842Z,32.30
2017-04-25T12:16:47.207Z,31.90
2017-04-25T12:17:45.443Z,32.20
2017-04-25T12:18:43.653Z,31.90
2017-04-25T12:19:41.865Z,32.10
2017-04-25T12:20:40.064Z,32.00
2017-04-25T12:21:38.367Z,32.00
2017-04-25T12:22:36.617Z,32.70
2017-04-25T12:23:34.840Z,32.80
2017-04-25T12:24:33.224Z,32.10
2017-04-25T12:25:31.518Z,32.80
2017-04-25T12:26:29.860Z,32.20
2017-04-25T12:27:28.162Z,33.00
2017-04-25T12:28:26.523Z,32.30
2017-04-25T12:29:24.886Z,33.00
2017-04-25T12:30:23.141Z,32.60
2017-04-25T12:31:21.517Z,33.00